createdAt,value
2022-10-11T00:01:08.170Z,9.30
2022-10-11T00:03:34.617Z,10.13
2022-10-11T00:06:03.197Z,9.87
2022-10-11T00:08:30.061Z,10.60
2022-10-11T00:10:58.791Z,9.20
2022-10-11T00:13:25.702Z,9.75
2022-10-11T00:15:52.235Z,10.52
2022-10-11T00:18:19.987Z,9.73
2022-10-11T00:20:46.395Z,9.90
2022-10-11T00:23:12.802Z,9.40
2022-10-11T00:25:39.340Z,9.00
2022-10-11T00:28:06.180Z,9.52
2022-10-11T00:30:33.125Z,9.03
2022-10-11T00:32:59.609Z,8.35
2022-10-11T00:35:26.188Z,7.47
2022-10-11T00:37:52.539Z,8.07
2022-10-11T00:40:20.873Z,7.45
2022-10-11T00:42:47.586Z,6.53
2022-10-11T00:45:26.347Z,5.80
2022-10-11T00:48:14.516Z,6.53
2022-10-11T00:50:41.743Z,5.65
2022-10-11T00:53:11.738Z,5.47
2022-10-11T00:55:49.356Z,5.20
2022-10-11T00:58:17.678Z,5.05
2022-10-11T01:00:44.124Z,4.78
2022-10-11T01:03:10.734Z,4.53
2022-10-11T01:05:39.665Z,4.43
2022-10-11T01:08:08.441Z,4.07
2022-10-11T01:10:35.291Z,3.58
2022-10-11T01:13:27.771Z,3.80
2022-10-11T01:16:05.655Z,3.53
2022-10-11T01:18:58.793Z,2.95
2022-10-11T01:21:33.843Z,2.80
2022-10-11T01:24:18.504Z,2.42
2022-10-11T01:27:40.638Z,2.60
2022-10-11T01:30:20.452Z,2.50
2022-10-11T01:32:57.439Z,2.60
2022-10-11T01:35:38.980Z,2.57
2022-10-11T01:38:13.334Z,2.30
2022-10-11T01:40:47.918Z,2.22
2022-10-11T01:43:15.730Z,2.40
2022-10-11T01:45:43.518Z,2.85
2022-10-11T01:48:12.765Z,2.20
2022-10-11T01:50:44.247Z,2.13
2022-10-11T01:53:26.885Z,2.22
2022-10-11T01:56:14.728Z,2.30
2022-10-11T01:59:08.090Z,2.10
2022-10-11T02:01:58.457Z,2.27
2022-10-11T02:04:31.465Z,2.15
2022-10-11T02:07:00.775Z,2.70
2022-10-11T02:09:37.418Z,2.20
2022-10-11T02:12:09.616Z,1.55
2022-10-11T02:14:41.144Z,2.00
2022-10-11T02:17:13.876Z,1.90
2022-10-11T02:19:46.991Z,2.00
2022-10-11T02:22:27.822Z,1.98
2022-10-11T02:24:58.801Z,2.13
2022-10-11T02:27:30.248Z,1.93
2022-10-11T02:30:00.031Z,1.90
2022-10-11T02:32:29.164Z,2.03
2022-10-11T02:34:58.112Z,2.60
2022-10-11T02:37:24.433Z,1.92
2022-10-11T02:39:58.450Z,2.20
2022-10-11T02:42:30.776Z,2.35
2022-10-11T02:45:02.887Z,2.40
2022-10-11T02:47:31.293Z,2.33
2022-10-11T02:49:59.657Z,2.40
2022-10-11T02:52:26.689Z,2.33
2022-10-11T02:54:53.081Z,2.30
2022-10-11T02:57:20.042Z,2.22
2022-10-11T02:59:46.444Z,2.60
2022-10-11T03:02:13.013Z,2.50
2022-10-11T03:04:39.455Z,2.80
2022-10-11T03:07:05.808Z,2.70
2022-10-11T03:09:32.561Z,2.40
2022-10-11T03:11:58.963Z,2.30
2022-10-11T03:14:25.405Z,2.20
2022-10-11T03:16:51.761Z,4.53
2022-10-11T03:19:19.415Z,3.20
2022-10-11T03:21:46.265Z,3.90
2022-10-11T03:24:12.661Z,3.20
2022-10-11T03:26:39.043Z,4.32
2022-10-11T03:29:05.497Z,2.90
2022-10-11T03:31:31.937Z,2.40
2022-10-11T03:33:58.372Z,2.80
2022-10-11T03:36:24.761Z,3.00
2022-10-11T03:38:51.110Z,2.60
2022-10-11T03:41:17.722Z,2.40
2022-10-11T03:43:44.437Z,2.50
2022-10-11T03:46:10.883Z,2.35
2022-10-11T03:48:37.255Z,2.20
2022-10-11T03:51:03.647Z,2.40
2022-10-11T03:53:30.023Z,2.53
2022-10-11T03:55:56.501Z,3.55
2022-10-11T03:58:23.953Z,2.67
2022-10-11T04:00:52.523Z,2.50
2022-10-11T04:03:18.933Z,2.83
2022-10-11T04:05:45.346Z,2.30
2022-10-11T04:08:12.451Z,2.60
2022-10-11T04:10:39.960Z,2.55
2022-10-11T04:13:07.328Z,2.25
2022-10-11T04:15:33.706Z,2.40
2022-10-11T04:18:00.188Z,2.90
2022-10-11T04:20:26.558Z,2.40
2022-10-11T04:22:52.996Z,2.60
2022-10-11T04:25:19.383Z,2.45
2022-10-11T04:27:45.826Z,2.33
2022-10-11T04:30:12.826Z,2.30
2022-10-11T04:32:39.214Z,2.60
2022-10-11T04:35:06.215Z,2.60
2022-10-11T04:37:33.096Z,2.58
2022-10-11T04:39:59.843Z,3.08
2022-10-11T04:42:26.283Z,2.60
2022-10-11T04:44:52.690Z,2.70
2022-10-11T04:47:19.162Z,2.80
2022-10-11T04:49:45.576Z,3.10
2022-10-11T04:52:12.036Z,2.60
2022-10-11T04:54:38.439Z,2.10
2022-10-11T04:57:04.831Z,2.10
2022-10-11T04:59:31.502Z,2.40
2022-10-11T05:01:58.031Z,2.25
2022-10-11T05:04:24.495Z,2.22
2022-10-11T05:06:51.133Z,2.30
2022-10-11T05:09:17.712Z,2.65
2022-10-11T05:11:44.093Z,2.20
2022-10-11T05:14:10.475Z,2.67
2022-10-11T05:16:36.938Z,2.47
2022-10-11T05:19:03.461Z,2.20
2022-10-11T05:21:30.533Z,2.40
2022-10-11T05:23:57.559Z,4.78
2022-10-11T05:26:27.168Z,3.92
2022-10-11T05:28:54.477Z,3.78
2022-10-11T05:31:21.420Z,2.87
2022-10-11T05:33:47.951Z,2.83
2022-10-11T05:36:14.538Z,2.72
2022-10-11T05:38:41.318Z,2.75
2022-10-11T05:41:11.244Z,2.70
2022-10-11T05:43:37.671Z,2.43
2022-10-11T05:46:04.423Z,2.90
2022-10-11T05:48:31.060Z,3.17
2022-10-11T05:51:06.422Z,2.88
2022-10-11T05:53:33.298Z,2.83
2022-10-11T05:55:59.693Z,2.30
2022-10-11T05:58:26.819Z,3.03
2022-10-11T06:00:53.284Z,2.42
2022-10-11T06:03:21.044Z,2.17
2022-10-11T06:05:47.703Z,2.15
2022-10-11T06:08:14.764Z,1.70
2022-10-11T06:10:41.691Z,2.03
2022-10-11T06:13:09.383Z,1.70
2022-10-11T06:15:38.890Z,2.00
2022-10-11T06:18:05.423Z,1.90
2022-10-11T06:20:31.960Z,1.80
2022-10-11T06:22:59.021Z,1.85
2022-10-11T06:25:25.510Z,1.63
2022-10-11T06:27:51.946Z,1.70
2022-10-11T06:30:18.409Z,2.08
2022-10-11T06:32:44.836Z,1.83
2022-10-11T06:35:11.560Z,2.75
2022-10-11T06:37:37.927Z,2.00
2022-10-11T06:40:05.912Z,8.90
2022-10-11T06:42:32.386Z,1.92
2022-10-11T06:44:58.863Z,2.10
2022-10-11T06:47:25.264Z,1.83
2022-10-11T06:49:51.661Z,1.92
2022-10-11T06:52:18.153Z,1.90
2022-10-11T06:54:45.552Z,1.80
2022-10-11T06:57:12.100Z,2.37
2022-10-11T06:59:38.524Z,2.10
2022-10-11T07:02:04.976Z,2.20
2022-10-11T07:04:33.643Z,2.20
2022-10-11T07:07:00.154Z,2.13
2022-10-11T07:09:26.607Z,2.50
2022-10-11T07:11:53.179Z,2.30
2022-10-11T07:14:19.611Z,2.40
2022-10-11T07:16:46.029Z,2.28
2022-10-11T07:19:12.518Z,1.88
2022-10-11T07:21:38.953Z,2.10
2022-10-11T07:24:05.901Z,2.20
2022-10-11T07:26:38.120Z,1.77
2022-10-11T07:29:08.006Z,1.98
2022-10-11T07:31:36.132Z,2.08
2022-10-11T07:34:02.771Z,1.63
2022-10-11T07:36:29.398Z,2.97
2022-10-11T07:38:55.806Z,2.45
2022-10-11T07:41:22.216Z,2.65
2022-10-11T07:43:49.860Z,2.20
2022-10-11T07:46:17.979Z,1.70
2022-10-11T07:48:44.737Z,2.03
2022-10-11T07:51:18.296Z,1.70
2022-10-11T07:53:47.505Z,2.17
2022-10-11T07:56:16.517Z,1.95
2022-10-11T07:58:43.374Z,2.00
2022-10-11T08:01:10.869Z,15.40
2022-10-11T08:03:38.131Z,2.53
2022-10-11T08:06:09.039Z,2.20
2022-10-11T08:08:37.048Z,2.38
2022-10-11T08:11:04.327Z,1.63
2022-10-11T08:13:31.632Z,2.00
2022-10-11T08:15:58.233Z,2.25
2022-10-11T08:18:25.040Z,2.00
2022-10-11T08:20:52.058Z,1.90
2022-10-11T08:23:19.372Z,1.90
2022-10-11T08:25:47.654Z,2.00
2022-10-11T08:28:17.976Z,2.13
2022-10-11T08:30:50.368Z,7.22
2022-10-11T08:33:21.284Z,2.80
2022-10-11T08:35:48.672Z,2.40
2022-10-11T08:38:15.297Z,1.98
2022-10-11T08:40:55.178Z,2.42
2022-10-11T08:43:36.008Z,2.10
2022-10-11T08:46:05.914Z,1.70
2022-10-11T08:48:36.613Z,1.97
2022-10-11T08:51:14.773Z,2.17
2022-10-11T08:53:48.156Z,1.90
2022-10-11T08:56:16.473Z,2.13
2022-10-11T08:58:54.431Z,2.22
2022-10-11T09:01:23.723Z,2.00
2022-10-11T09:03:51.617Z,2.13
2022-10-11T09:06:21.455Z,2.03
2022-10-11T09:08:58.582Z,2.40
2022-10-11T09:11:45.557Z,2.40
2022-10-11T09:14:17.769Z,2.63
2022-10-11T09:17:01.470Z,2.30
2022-10-11T09:20:08.550Z,1.80
2022-10-11T09:22:44.072Z,2.70
2022-10-11T09:25:44.229Z,2.80
2022-10-11T09:28:21.933Z,1.77
2022-10-11T09:30:52.653Z,1.85
2022-10-11T09:33:38.815Z,2.40
2022-10-11T09:36:26.401Z,1.83
2022-10-11T09:39:15.743Z,1.80
2022-10-11T09:41:52.035Z,2.03
2022-10-11T09:44:27.487Z,1.90
2022-10-11T09:46:56.059Z,6.25
2022-10-11T09:49:29.121Z,3.53
2022-10-11T09:51:58.850Z,2.00
2022-10-11T09:54:49.247Z,2.00
2022-10-11T09:57:24.998Z,2.05
2022-10-11T10:00:00.477Z,2.00
2022-10-11T10:02:29.585Z,1.42
2022-10-11T10:05:02.233Z,1.98
2022-10-11T10:07:31.595Z,1.60
2022-10-11T10:09:58.564Z,2.22
2022-10-11T10:12:29.304Z,1.52
2022-10-11T10:15:18.852Z,1.80
2022-10-11T10:17:53.135Z,1.40
2022-10-11T10:20:22.558Z,1.87
2022-10-11T10:22:49.336Z,1.70
2022-10-11T10:25:29.890Z,1.20
2022-10-11T10:27:59.276Z,4.03
2022-10-11T10:30:26.185Z,2.00
2022-10-11T10:33:00.678Z,2.30
2022-10-11T10:35:27.398Z,1.60
2022-10-11T10:37:56.556Z,1.63
2022-10-11T10:40:30.091Z,1.60
2022-10-11T10:42:56.496Z,2.00
2022-10-11T10:45:32.870Z,1.70
2022-10-11T10:48:18.182Z,1.95
2022-10-11T10:51:05.970Z,1.60
2022-10-11T10:53:42.016Z,1.65
2022-10-11T10:56:17.847Z,1.67
2022-10-11T10:58:46.945Z,5.03
2022-10-11T11:01:27.175Z,1.98
2022-10-11T11:03:57.556Z,2.20
2022-10-11T11:06:41.370Z,1.70
2022-10-11T11:09:17.707Z,2.58
2022-10-11T11:11:57.149Z,2.40
2022-10-11T11:14:43.991Z,2.00
2022-10-11T11:17:31.359Z,1.90
2022-10-11T11:20:31.091Z,2.00
2022-10-11T11:23:38.146Z,1.88
2022-10-11T11:26:11.215Z,1.60
2022-10-11T11:29:03.386Z,1.60
2022-10-11T11:31:44.662Z,1.40
2022-10-11T11:34:18.891Z,1.60
2022-10-11T11:36:55.394Z,1.80
2022-10-11T11:39:25.832Z,1.60
2022-10-11T11:41:59.683Z,1.88
2022-10-11T11:44:34.451Z,1.50
2022-10-11T11:47:21.321Z,1.80
2022-10-11T11:49:53.743Z,1.40
2022-10-11T11:52:26.920Z,1.50
2022-10-11T11:55:03.739Z,1.52
2022-10-11T11:58:15.553Z,1.50
2022-10-11T12:00:54.534Z,1.88
2022-10-11T12:03:27.238Z,1.73
2022-10-11T12:06:11.969Z,1.77
2022-10-11T12:08:40.661Z,1.40
2022-10-11T12:11:17.912Z,1.55
2022-10-11T12:13:46.548Z,1.65
2022-10-11T12:16:16.340Z,1.40
2022-10-11T12:19:03.607Z,1.50
2022-10-11T12:21:33.498Z,1.17
2022-10-11T12:24:10.710Z,1.50
2022-10-11T12:26:42.933Z,1.73
2022-10-11T12:29:18.662Z,1.45
2022-10-11T12:31:48.026Z,1.50
2022-10-11T12:34:37.605Z,1.75
2022-10-11T12:37:24.435Z,1.75
2022-10-11T12:39:55.784Z,1.92
2022-10-11T12:42:34.366Z,1.70
2022-10-11T12:45:13.026Z,1.53
2022-10-11T12:47:59.312Z,1.35
2022-10-11T12:51:02.944Z,3.88
2022-10-11T12:53:29.626Z,1.70
2022-10-11T12:56:12.387Z,1.70
2022-10-11T12:58:43.821Z,1.90
2022-10-11T13:01:14.837Z,1.60
2022-10-11T13:03:44.851Z,1.77
2022-10-11T13:06:12.843Z,1.73
2022-10-11T13:08:43.185Z,1.70
2022-10-11T13:11:11.644Z,1.73
2022-10-11T13:13:44.920Z,1.65
2022-10-11T13:16:21.407Z,1.58
2022-10-11T13:18:54.201Z,1.70
2022-10-11T13:21:31.469Z,1.67
2022-10-11T13:24:00.627Z,1.63
2022-10-11T13:26:29.057Z,1.58
2022-10-11T13:28:55.764Z,1.90
2022-10-11T13:31:24.287Z,1.70
2022-10-11T13:33:55.105Z,1.80
2022-10-11T13:36:25.583Z,2.00
2022-10-11T13:39:00.373Z,1.60
2022-10-11T13:41:29.779Z,2.10
2022-10-11T13:43:58.202Z,1.55
2022-10-11T13:46:27.854Z,2.00
2022-10-11T13:48:59.031Z,1.87
2022-10-11T13:51:35.928Z,1.90
2022-10-11T13:54:11.737Z,1.75
2022-10-11T13:56:48.081Z,2.00
2022-10-11T13:59:20.167Z,1.70
2022-10-11T14:01:47.567Z,3.83
2022-10-11T14:04:17.122Z,3.42
2022-10-11T14:06:48.010Z,1.90
2022-10-11T14:09:26.212Z,1.70
2022-10-11T14:11:53.418Z,1.92
2022-10-11T14:14:35.515Z,1.50
2022-10-11T14:17:06.462Z,1.90
2022-10-11T14:19:32.995Z,1.70
2022-10-11T14:21:59.443Z,2.00
2022-10-11T14:24:25.884Z,1.92
2022-10-11T14:26:54.495Z,1.90
2022-10-11T14:29:29.354Z,1.80
2022-10-11T14:32:14.090Z,2.03
2022-10-11T14:34:40.513Z,2.20
2022-10-11T14:37:06.904Z,1.98
2022-10-11T14:39:33.440Z,1.90
2022-10-11T14:41:59.888Z,1.83
2022-10-11T14:44:26.413Z,2.17
2022-10-11T14:46:54.826Z,2.13
2022-10-11T14:49:30.326Z,1.80
2022-10-11T14:51:58.410Z,2.00
2022-10-11T14:54:26.873Z,1.98
2022-10-11T14:56:56.500Z,1.88
2022-10-11T14:59:25.695Z,2.33
2022-10-11T15:01:53.957Z,2.13
2022-10-11T15:04:21.840Z,2.30
2022-10-11T15:06:49.025Z,2.53
2022-10-11T15:09:17.118Z,2.08
2022-10-11T15:11:43.871Z,2.30
2022-10-11T15:14:10.263Z,2.55
2022-10-11T15:16:36.643Z,2.30
2022-10-11T15:19:03.818Z,2.17
2022-10-11T15:21:30.298Z,2.78
2022-10-11T15:23:56.836Z,2.00
2022-10-11T15:26:26.378Z,1.90
2022-10-11T15:28:54.756Z,2.00
2022-10-11T15:31:21.559Z,2.15
2022-10-11T15:33:48.553Z,2.40
2022-10-11T15:36:21.487Z,2.25
2022-10-11T15:38:49.168Z,2.13
2022-10-11T15:41:18.744Z,1.90
2022-10-11T15:43:46.544Z,1.90
2022-10-11T15:46:18.075Z,2.05
2022-10-11T15:48:45.583Z,2.00
2022-10-11T15:51:12.245Z,4.93
2022-10-11T15:53:39.055Z,2.20
2022-10-11T15:56:09.206Z,2.63
2022-10-11T15:58:38.108Z,3.05
2022-10-11T16:01:08.291Z,3.10
2022-10-11T16:03:36.072Z,2.67
2022-10-11T16:06:05.574Z,3.60
2022-10-11T16:08:33.293Z,2.65
2022-10-11T16:11:00.224Z,3.15
2022-10-11T16:13:26.705Z,2.80
2022-10-11T16:15:53.210Z,2.28
2022-10-11T16:18:20.947Z,2.10
2022-10-11T16:20:48.895Z,2.20
2022-10-11T16:23:15.660Z,2.20
2022-10-11T16:25:42.438Z,2.20
2022-10-11T16:28:10.118Z,2.25
2022-10-11T16:30:43.103Z,2.20
2022-10-11T16:33:09.894Z,2.40
2022-10-11T16:35:36.692Z,2.08
2022-10-11T16:38:03.118Z,1.90
2022-10-11T16:40:30.044Z,2.13
2022-10-11T16:42:56.811Z,2.13
2022-10-11T16:45:23.455Z,2.45
2022-10-11T16:47:49.913Z,2.00
2022-10-11T16:50:16.393Z,2.10
2022-10-11T16:52:42.799Z,2.20
2022-10-11T16:55:09.661Z,2.10
2022-10-11T16:57:37.681Z,3.50
2022-10-11T17:00:08.700Z,2.95
2022-10-11T17:02:36.123Z,2.60
2022-10-11T17:05:03.893Z,2.80
2022-10-11T17:07:30.904Z,3.30
2022-10-11T17:09:58.128Z,3.85
2022-10-11T17:12:24.641Z,2.28
2022-10-11T17:14:51.482Z,3.50
2022-10-11T17:17:18.957Z,2.83
2022-10-11T17:19:47.560Z,3.43
2022-10-11T17:22:16.678Z,3.10
2022-10-11T17:24:43.661Z,2.83
2022-10-11T17:27:10.123Z,4.07
2022-10-11T17:29:37.165Z,3.33
2022-10-11T17:32:04.156Z,3.20
2022-10-11T17:34:30.770Z,3.45
2022-10-11T17:36:57.121Z,4.43
2022-10-11T17:39:24.061Z,4.18
2022-10-11T17:41:50.636Z,3.10
2022-10-11T17:44:18.766Z,2.73
2022-10-11T17:46:46.451Z,3.25
2022-10-11T17:49:13.057Z,2.80
2022-10-11T17:51:40.197Z,3.13
2022-10-11T17:54:12.184Z,2.45
2022-10-11T17:56:40.433Z,3.60
2022-10-11T17:59:08.397Z,2.40
2022-10-11T18:01:35.668Z,2.13
2022-10-11T18:04:05.060Z,2.50
2022-10-11T18:06:34.145Z,2.92
2022-10-11T18:09:02.285Z,3.93
2022-10-11T18:11:29.307Z,4.15
2022-10-11T18:13:56.021Z,4.80
2022-10-11T18:16:26.854Z,5.32
2022-10-11T18:18:54.706Z,5.95
2022-10-11T18:21:21.174Z,12.00
2022-10-11T18:23:47.789Z,11.38
2022-10-11T18:26:17.538Z,6.82
2022-10-11T18:28:44.384Z,4.68
2022-10-11T18:31:17.033Z,2.50
2022-10-11T18:33:45.870Z,2.60
2022-10-11T18:36:14.172Z,4.15
2022-10-11T18:38:46.075Z,3.80
2022-10-11T18:41:14.999Z,3.13
2022-10-11T18:43:41.948Z,2.50
2022-10-11T18:46:13.853Z,2.80
2022-10-11T18:48:42.038Z,2.55
2022-10-11T18:51:11.579Z,2.72
2022-10-11T18:53:38.460Z,2.83
2022-10-11T18:56:07.231Z,2.70
2022-10-11T18:58:35.464Z,3.00
2022-10-11T19:01:20.438Z,2.55
2022-10-11T19:03:49.056Z,2.80
2022-10-11T19:06:18.210Z,2.97
2022-10-11T19:08:46.706Z,2.65
2022-10-11T19:11:14.040Z,3.80
2022-10-11T19:13:40.515Z,3.15
2022-10-11T19:16:09.867Z,3.22
2022-10-11T19:18:41.718Z,3.22
2022-10-11T19:21:12.685Z,2.95
2022-10-11T19:23:42.065Z,3.67
2022-10-11T19:26:31.303Z,2.63
2022-10-11T19:29:00.663Z,3.15
2022-10-11T19:31:28.301Z,3.33
2022-10-11T19:33:57.105Z,2.70
2022-10-11T19:36:24.259Z,2.60
2022-10-11T19:38:51.432Z,2.85
2022-10-11T19:41:19.774Z,2.65
2022-10-11T19:43:47.009Z,2.80
2022-10-11T19:46:20.262Z,3.13
2022-10-11T19:48:50.859Z,2.60
2022-10-11T19:51:22.896Z,3.30
2022-10-11T19:53:55.175Z,3.50
2022-10-11T19:56:21.611Z,5.07
2022-10-11T19:58:48.522Z,3.85
2022-10-11T20:01:21.406Z,3.50
2022-10-11T20:03:53.870Z,3.72
2022-10-11T20:06:22.017Z,3.80
2022-10-11T20:09:10.348Z,4.20
2022-10-11T20:11:38.024Z,3.40
2022-10-11T20:14:04.805Z,2.77
2022-10-11T20:16:31.318Z,8.48
2022-10-11T20:19:01.999Z,5.28
2022-10-11T20:21:30.310Z,6.50
2022-10-11T20:24:02.035Z,3.70
2022-10-11T20:26:29.737Z,4.40
2022-10-11T20:28:57.417Z,3.30
2022-10-11T20:31:32.781Z,4.03
2022-10-11T20:34:06.104Z,2.95
2022-10-11T20:36:34.204Z,3.28
2022-10-11T20:39:00.742Z,3.17
2022-10-11T20:41:33.132Z,3.30
2022-10-11T20:44:01.320Z,3.40
2022-10-11T20:46:31.300Z,3.60
2022-10-11T20:49:01.860Z,3.38
2022-10-11T20:51:30.484Z,3.63
2022-10-11T20:53:57.005Z,3.42
2022-10-11T20:56:23.472Z,3.45
2022-10-11T20:58:52.335Z,20.42
2022-10-11T21:01:21.151Z,5.60
2022-10-11T21:03:47.658Z,8.47
2022-10-11T21:06:14.050Z,5.93
2022-10-11T21:08:40.795Z,5.32
2022-10-11T21:11:08.407Z,6.97
2022-10-11T21:13:34.970Z,7.32
2022-10-11T21:16:12.353Z,5.43
2022-10-11T21:18:39.325Z,4.78
2022-10-11T21:21:07.679Z,4.30
2022-10-11T21:23:34.575Z,4.63
2022-10-11T21:26:02.769Z,4.90
2022-10-11T21:28:29.775Z,4.40
2022-10-11T21:31:02.237Z,3.80
2022-10-11T21:33:30.064Z,3.80
2022-10-11T21:35:57.409Z,5.55
2022-10-11T21:38:23.841Z,5.45
2022-10-11T21:40:50.207Z,3.60
2022-10-11T21:43:16.614Z,3.42
2022-10-11T21:45:43.148Z,3.78
2022-10-11T21:48:09.490Z,3.58
2022-10-11T21:50:35.886Z,3.75
2022-10-11T21:53:02.369Z,3.83
2022-10-11T21:55:28.847Z,3.40
2022-10-11T21:57:55.251Z,3.70
2022-10-11T22:00:21.620Z,4.22
2022-10-11T22:02:48.107Z,3.92
2022-10-11T22:05:14.465Z,3.37
2022-10-11T22:07:40.836Z,3.88
2022-10-11T22:10:07.348Z,3.45
2022-10-11T22:12:33.959Z,3.30
2022-10-11T22:15:00.600Z,3.97
2022-10-11T22:17:26.987Z,4.00
2022-10-11T22:19:53.360Z,4.65
2022-10-11T22:22:19.751Z,4.60
2022-10-11T22:24:46.153Z,4.15
2022-10-11T22:27:12.562Z,3.63
2022-10-11T22:29:38.921Z,4.47
2022-10-11T22:32:05.329Z,3.38
2022-10-11T22:34:32.724Z,3.90
2022-10-11T22:36:59.079Z,4.10
2022-10-11T22:39:25.553Z,4.13
2022-10-11T22:41:53.997Z,4.10
2022-10-11T22:44:20.695Z,3.40
2022-10-11T22:46:47.185Z,3.35
2022-10-11T22:49:13.619Z,3.78
2022-10-11T22:51:39.991Z,3.65
2022-10-11T22:54:06.380Z,3.53
2022-10-11T22:56:32.851Z,3.70
2022-10-11T22:58:59.471Z,3.80
2022-10-11T23:01:25.850Z,3.80
2022-10-11T23:03:52.303Z,3.78
2022-10-11T23:06:18.745Z,4.10
2022-10-11T23:08:45.220Z,3.42
2022-10-11T23:11:13.591Z,3.50
2022-10-11T23:13:39.993Z,4.07
2022-10-11T23:16:08.013Z,3.83
2022-10-11T23:18:34.671Z,3.70
2022-10-11T23:21:01.365Z,4.03
2022-10-11T23:23:27.732Z,3.65
2022-10-11T23:26:05.064Z,4.13
2022-10-11T23:28:32.052Z,3.40
2022-10-11T23:30:58.781Z,3.40
2022-10-11T23:33:25.521Z,3.58
2022-10-11T23:35:51.883Z,3.25
2022-10-11T23:38:18.287Z,3.88
2022-10-11T23:40:44.697Z,3.83
2022-10-11T23:43:11.103Z,3.80
2022-10-11T23:45:37.601Z,3.45
2022-10-11T23:48:04.402Z,3.88
2022-10-11T23:50:30.749Z,3.63
2022-10-11T23:52:57.170Z,3.95
2022-10-11T23:55:23.508Z,4.23
2022-10-11T23:57:49.948Z,3.58
